sensor_id;sensor_type;location;lat;lon;timestamp;pressure;altitude;pressure_sealevel;temperature;humidity
77939;BME280;67136;47.546;21.630;2023-06-10T00:02:41;99798.59;;;16.40;100.00
77939;BME280;67136;47.546;21.630;2023-06-10T00:05:46;99796.97;;;16.39;100.00
77939;BME280;67136;47.546;21.630;2023-06-10T00:08:48;99788.22;;;16.39;100.00
77939;BME280;67136;47.546;21.630;2023-06-10T00:11:54;99790.69;;;16.40;100.00
77939;BME280;67136;47.546;21.630;2023-06-10T00:14:57;99795.78;;;16.42;100.00
77939;BME280;67136;47.546;21.630;2023-06-10T00:17:59;99791.69;;;16.39;100.00
77939;BME280;67136;47.546;21.630;2023-06-10T00:21:03;99796.31;;;16.37;100.00
77939;BME280;67136;47.546;21.630;2023-06-10T00:24:08;99795.31;;;16.38;100.00
77939;BME280;67136;47.546;21.630;2023-06-10T00:27:16;99797.81;;;16.40;100.00
77939;BME280;67136;47.546;21.630;2023-06-10T00:30:19;99802.25;;;16.39;100.00
77939;BME280;67136;47.546;21.630;2023-06-10T00:33:22;99795.47;;;16.45;100.00
77939;BME280;67136;47.546;21.630;2023-06-10T00:36:25;99796.41;;;16.52;100.00
77939;BME280;67136;47.546;21.630;2023-06-10T00:39:28;99790.78;;;16.55;100.00
77939;BME280;67136;47.546;21.630;2023-06-10T00:42:31;99798.53;;;16.56;100.00
77939;BME280;67136;47.546;21.630;2023-06-10T00:45:33;99807.59;;;16.54;100.00
77939;BME280;67136;47.546;21.630;2023-06-10T00:48:36;99797.69;;;16.56;100.00
77939;BME280;67136;47.546;21.630;2023-06-10T00:51:39;99804.13;;;16.53;100.00
77939;BME280;67136;47.546;21.630;2023-06-10T00:54:42;99796.22;;;16.53;100.00
77939;BME280;67136;47.546;21.630;2023-06-10T00:57:46;99800.16;;;16.57;100.00
77939;BME280;67136;47.546;21.630;2023-06-10T01:00:51;99807.91;;;16.59;100.00
77939;BME280;67136;47.546;21.630;2023-06-10T01:03:54;99800.63;;;16.61;100.00
77939;BME280;67136;47.546;21.630;2023-06-10T01:07:08;99800.53;;;16.54;100.00
77939;BME280;67136;47.546;21.630;2023-06-10T01:13:38;99799.41;;;16.49;100.00
77939;BME280;67136;47.546;21.630;2023-06-10T01:16:43;99810.47;;;16.44;100.00
77939;BME280;67136;47.546;21.630;2023-06-10T01:19:55;99803.53;;;16.43;100.00
77939;BME280;67136;47.546;21.630;2023-06-10T01:23:01;99803.87;;;16.40;100.00
77939;BME280;67136;47.546;21.630;2023-06-10T01:26:09;99801.25;;;16.40;100.00
77939;BME280;67136;47.546;21.630;2023-06-10T01:29:30;99806.22;;;16.35;100.00
77939;BME280;67136;47.546;21.630;2023-06-10T01:32:43;99802.31;;;16.31;100.00
77939;BME280;67136;47.546;21.630;2023-06-10T01:35:50;99814.19;;;16.27;100.00
77939;BME280;67136;47.546;21.630;2023-06-10T01:38:55;99806.28;;;16.27;100.00
77939;BME280;67136;47.546;21.630;2023-06-10T01:41:58;99804.13;;;16.31;100.00
77939;BME280;67136;47.546;21.630;2023-06-10T01:45:01;99804.66;;;16.26;100.00
77939;BME280;67136;47.546;21.630;2023-06-10T01:48:04;99814.19;;;16.27;100.00
77939;BME280;67136;47.546;21.630;2023-06-10T01:51:07;99805.28;;;16.28;100.00
77939;BME280;67136;47.546;21.630;2023-06-10T01:54:11;99804.13;;;16.31;100.00
77939;BME280;67136;47.546;21.630;2023-06-10T01:57:14;99799.66;;;16.31;100.00
77939;BME280;67136;47.546;21.630;2023-06-10T02:00:18;99798.19;;;16.29;100.00
77939;BME280;67136;47.546;21.630;2023-06-10T02:03:21;99800.81;;;16.29;100.00
77939;BME280;67136;47.546;21.630;2023-06-10T02:06:25;99790.63;;;16.26;100.00
77939;BME280;67136;47.546;21.630;2023-06-10T02:09:28;99791.47;;;16.26;100.00
77939;BME280;67136;47.546;21.630;2023-06-10T02:12:32;99793.44;;;16.24;100.00
77939;BME280;67136;47.546;21.630;2023-06-10T02:15:35;99800.22;;;16.18;100.00
77939;BME280;67136;47.546;21.630;2023-06-10T02:18:38;99800.59;;;16.15;100.00
77939;BME280;67136;47.546;21.630;2023-06-10T02:21:43;99795.66;;;16.12;100.00
77939;BME280;67136;47.546;21.630;2023-06-10T02:24:45;99797.28;;;16.13;100.00
77939;BME280;67136;47.546;21.630;2023-06-10T02:27:48;99808.69;;;16.14;100.00
77939;BME280;67136;47.546;21.630;2023-06-10T02:30:51;99806.69;;;16.16;100.00
77939;BME280;67136;47.546;21.630;2023-06-10T02:33:55;99811.97;;;16.16;100.00
77939;BME280;67136;47.546;21.630;2023-06-10T02:36:59;99817.25;;;16.16;100.00
77939;BME280;67136;47.546;21.630;2023-06-10T02:40:03;99812.75;;;16.16;100.00
77939;BME280;67136;47.546;21.630;2023-06-10T02:43:07;99809.94;;;16.18;100.00
77939;BME280;67136;47.546;21.630;2023-06-10T02:46:10;99817.53;;;16.21;100.00
77939;BME280;67136;47.546;21.630;2023-06-10T02:49:13;99821.16;;;16.20;100.00
77939;BME280;67136;47.546;21.630;2023-06-10T02:52:16;99812.41;;;16.19;100.00
77939;BME280;67136;47.546;21.630;2023-06-10T02:55:19;99816.88;;;16.19;100.00
77939;BME280;67136;47.546;21.630;2023-06-10T02:58:26;99814.91;;;16.21;100.00
77939;BME280;67136;47.546;21.630;2023-06-10T03:01:30;99814.91;;;16.21;100.00
77939;BME280;67136;47.546;21.630;2023-06-10T03:04:34;99812.88;;;16.23;100.00
77939;BME280;67136;47.546;21.630;2023-06-10T03:07:41;99812.88;;;16.23;100.00
77939;BME280;67136;47.546;21.630;2023-06-10T03:10:43;99822.47;;;16.24;100.00
77939;BME280;67136;47.546;21.630;2023-06-10T03:13:48;99821.47;;;16.25;100.00
77939;BME280;67136;47.546;21.630;2023-06-10T03:16:51;99822.59;;;16.31;100.00
77939;BME280;67136;47.546;21.630;2023-06-10T03:19:54;99816.78;;;16.35;100.00
77939;BME280;67136;47.546;21.630;2023-06-10T03:22:57;99823.72;;;16.36;100.00
77939;BME280;67136;47.546;21.630;2023-06-10T03:26:00;99818.09;;;16.39;100.00
77939;BME280;67136;47.546;21.630;2023-06-10T03:29:03;99826.66;;;16.41;100.00
77939;BME280;67136;47.546;21.630;2023-06-10T03:32:06;99822.31;;;16.48;100.00
77939;BME280;67136;47.546;21.630;2023-06-10T03:35:10;99825.63;;;16.50;100.00
77939;BME280;67136;47.546;21.630;2023-06-10T03:38:14;99825.25;;;16.53;100.00
77939;BME280;67136;47.546;21.630;2023-06-10T03:41:17;99821.28;;;16.57;100.00
77939;BME280;67136;47.546;21.630;2023-06-10T03:44:20;99828.47;;;16.63;100.00
77939;BME280;67136;47.546;21.630;2023-06-10T03:47:23;99825.84;;;16.63;100.00
77939;BME280;67136;47.546;21.630;2023-06-10T03:50:26;99818.34;;;16.75;100.00
77939;BME280;67136;47.546;21.630;2023-06-10T03:53:29;99824.22;;;16.85;100.00
77939;BME280;67136;47.546;21.630;2023-06-10T03:56:32;99818.22;;;16.91;100.00
77939;BME280;67136;47.546;21.630;2023-06-10T03:59:34;99813.38;;;16.94;100.00
77939;BME280;67136;47.546;21.630;2023-06-10T04:02:38;99824.88;;;17.01;100.00
77939;BME280;67136;47.546;21.630;2023-06-10T04:05:50;99817.25;;;17.06;100.00
77939;BME280;67136;47.546;21.630;2023-06-10T04:08:52;99817.34;;;17.13;100.00
77939;BME280;67136;47.546;21.630;2023-06-10T04:11:56;99807.34;;;17.23;100.00
77939;BME280;67136;47.546;21.630;2023-06-10T04:14:59;99814.34;;;17.30;100.00
77939;BME280;67136;47.546;21.630;2023-06-10T04:18:03;99811.66;;;17.38;100.00
77939;BME280;67136;47.546;21.630;2023-06-10T04:21:06;99815.53;;;17.42;100.00
77939;BME280;67136;47.546;21.630;2023-06-10T04:24:09;99820.50;;;17.46;100.00
77939;BME280;67136;47.546;21.630;2023-06-10T04:27:11;99814.22;;;17.47;100.00
77939;BME280;67136;47.546;21.630;2023-06-10T04:30:15;99821.13;;;17.48;100.00
77939;BME280;67136;47.546;21.630;2023-06-10T04:33:18;99823.13;;;17.46;100.00
77939;BME280;67136;47.546;21.630;2023-06-10T04:36:21;99822.44;;;17.52;100.00
77939;BME280;67136;47.546;21.630;2023-06-10T04:39:23;99824.25;;;17.66;99.58
77939;BME280;67136;47.546;21.630;2023-06-10T04:42:27;99830.63;;;17.86;98.55
77939;BME280;67136;47.546;21.630;2023-06-10T04:45:30;99831.50;;;17.93;96.49
77939;BME280;67136;47.546;21.630;2023-06-10T04:48:34;99831.31;;;18.09;95.66
77939;BME280;67136;47.546;21.630;2023-06-10T04:51:38;99833.72;;;18.25;95.38
77939;BME280;67136;47.546;21.630;2023-06-10T04:54:41;99835.81;;;18.44;94.49
77939;BME280;67136;47.546;21.630;2023-06-10T04:57:43;99838.47;;;18.65;93.39
77939;BME280;67136;47.546;21.630;2023-06-10T05:00:46;99838.63;;;18.78;89.98
77939;BME280;67136;47.546;21.630;2023-06-10T05:03:49;99832.25;;;19.00;89.37
77939;BME280;67136;47.546;21.630;2023-06-10T05:06:51;99833.00;;;19.15;87.00
77939;BME280;67136;47.546;21.630;2023-06-10T05:09:55;99834.50;;;19.24;85.55
77939;BME280;67136;47.546;21.630;2023-06-10T05:12:58;99833.22;;;19.75;84.39
77939;BME280;67136;47.546;21.630;2023-06-10T05:16:01;99826.78;;;19.98;81.69
77939;BME280;67136;47.546;21.630;2023-06-10T05:19:04;99827.72;;;20.18;81.09
77939;BME280;67136;47.546;21.630;2023-06-10T05:22:09;99828.56;;;20.31;80.77
77939;BME280;67136;47.546;21.630;2023-06-10T05:25:12;99824.91;;;20.26;79.68
77939;BME280;67136;47.546;21.630;2023-06-10T05:28:15;99825.31;;;20.23;79.72
77939;BME280;67136;47.546;21.630;2023-06-10T05:31:18;99832.53;;;20.08;79.94
77939;BME280;67136;47.546;21.630;2023-06-10T05:34:21;99836.22;;;20.07;80.48
77939;BME280;67136;47.546;21.630;2023-06-10T05:37:24;99830.88;;;19.94;80.24
77939;BME280;67136;47.546;21.630;2023-06-10T05:40:26;99827.78;;;19.90;80.16
77939;BME280;67136;47.546;21.630;2023-06-10T05:43:29;99840.28;;;20.03;79.48
77939;BME280;67136;47.546;21.630;2023-06-10T05:46:31;99828.88;;;20.09;77.79
77939;BME280;67136;47.546;21.630;2023-06-10T05:49:38;99831.75;;;20.14;78.24
77939;BME280;67136;47.546;21.630;2023-06-10T05:52:40;99838.97;;;20.26;78.27
77939;BME280;67136;47.546;21.630;2023-06-10T05:55:44;99832.25;;;20.30;78.47
77939;BME280;67136;47.546;21.630;2023-06-10T05:58:47;99833.13;;;20.50;77.96
77939;BME280;67136;47.546;21.630;2023-06-10T06:01:50;99838.09;;;20.86;77.23
77939;BME280;67136;47.546;21.630;2023-06-10T06:04:53;99837.62;;;21.67;74.37
77939;BME280;67136;47.546;21.630;2023-06-10T06:07:55;99830.34;;;22.13;72.50
77939;BME280;67136;47.546;21.630;2023-06-10T06:10:59;99831.47;;;21.73;73.12
77939;BME280;67136;47.546;21.630;2023-06-10T06:14:02;99831.88;;;21.83;72.24
77939;BME280;67136;47.546;21.630;2023-06-10T06:17:05;99835.56;;;21.69;72.99
77939;BME280;67136;47.546;21.630;2023-06-10T06:20:08;99836.47;;;21.24;75.08
77939;BME280;67136;47.546;21.630;2023-06-10T06:23:11;99831.16;;;21.05;76.50
77939;BME280;67136;47.546;21.630;2023-06-10T06:26:13;99827.47;;;21.25;75.29
77939;BME280;67136;47.546;21.630;2023-06-10T06:29:17;99829.31;;;21.31;75.45
77939;BME280;67136;47.546;21.630;2023-06-10T06:32:20;99831.50;;;21.60;75.07
77939;BME280;67136;47.546;21.630;2023-06-10T06:35:25;99825.81;;;21.31;76.40
77939;BME280;67136;47.546;21.630;2023-06-10T06:38:27;99821.72;;;21.41;75.90
77939;BME280;67136;47.546;21.630;2023-06-10T06:41:30;99831.16;;;21.24;75.85
77939;BME280;67136;47.546;21.630;2023-06-10T06:44:33;99827.47;;;21.25;76.42
77939;BME280;67136;47.546;21.630;2023-06-10T06:47:36;99827.38;;;21.84;74.51
77939;BME280;67136;47.546;21.630;2023-06-10T06:50:38;99835.94;;;21.99;72.83
77939;BME280;67136;47.546;21.630;2023-06-10T06:53:42;99832.63;;;22.03;72.94
77939;BME280;67136;47.546;21.630;2023-06-10T06:56:46;99832.84;;;22.02;73.67
77939;BME280;67136;47.546;21.630;2023-06-10T06:59:49;99831.81;;;22.03;73.38
77939;BME280;67136;47.546;21.630;2023-06-10T07:02:52;99840.06;;;21.75;73.81
77939;BME280;67136;47.546;21.630;2023-06-10T07:05:55;99839.81;;;21.96;73.57
77939;BME280;67136;47.546;21.630;2023-06-10T07:08:57;99841.69;;;21.76;74.69
77939;BME280;67136;47.546;21.630;2023-06-10T07:12:01;99841.94;;;21.68;75.45
77939;BME280;67136;47.546;21.630;2023-06-10T07:15:04;99835.47;;;22.53;72.46
77939;BME280;67136;47.546;21.630;2023-06-10T07:18:07;99841.59;;;23.40;69.37
77939;BME280;67136;47.546;21.630;2023-06-10T07:21:10;99834.22;;;24.44;63.64
77939;BME280;67136;47.546;21.630;2023-06-10T07:24:13;99840.50;;;25.66;61.69
77939;BME280;67136;47.546;21.630;2023-06-10T07:27:18;99827.56;;;28.35;53.73
77939;BME280;67136;47.546;21.630;2023-06-10T07:30:20;99834.56;;;28.36;53.73
77939;BME280;67136;47.546;21.630;2023-06-10T07:33:23;99840.50;;;29.18;50.71
77939;BME280;67136;47.546;21.630;2023-06-10T07:36:26;99829.41;;;29.09;49.44
77939;BME280;67136;47.546;21.630;2023-06-10T07:39:30;99828.44;;;27.21;54.94
77939;BME280;67136;47.546;21.630;2023-06-10T07:42:35;99826.78;;;26.70;55.91
77939;BME280;67136;47.546;21.630;2023-06-10T07:45:41;99828.63;;;26.25;56.01
77939;BME280;67136;47.546;21.630;2023-06-10T07:48:44;99828.16;;;25.42;55.92
77939;BME280;67136;47.546;21.630;2023-06-10T07:51:49;99825.47;;;25.31;57.72
77939;BME280;67136;47.546;21.630;2023-06-10T07:54:52;99824.28;;;24.33;61.20
77939;BME280;67136;47.546;21.630;2023-06-10T07:57:55;99828.44;;;24.17;62.05
77939;BME280;67136;47.546;21.630;2023-06-10T08:00:58;99819.38;;;23.82;65.71
77939;BME280;67136;47.546;21.630;2023-06-10T08:04:00;99822.47;;;26.13;59.11
77939;BME280;67136;47.546;21.630;2023-06-10T08:07:03;99830.53;;;27.52;56.10
77939;BME280;67136;47.546;21.630;2023-06-10T08:10:06;99824.59;;;26.39;59.16
77939;BME280;67136;47.546;21.630;2023-06-10T08:13:09;99821.28;;;25.69;60.64
77939;BME280;67136;47.546;21.630;2023-06-10T08:16:12;99828.84;;;25.26;62.65
77939;BME280;67136;47.546;21.630;2023-06-10T08:19:16;99828.34;;;25.87;61.90
77939;BME280;67136;47.546;21.630;2023-06-10T08:22:19;99817.19;;;25.55;61.44
77939;BME280;67136;47.546;21.630;2023-06-10T08:25:21;99817.09;;;25.62;61.64
77939;BME280;67136;47.546;21.630;2023-06-10T08:28:24;99817.81;;;25.46;62.49
77939;BME280;67136;47.546;21.630;2023-06-10T08:31:27;99814.22;;;25.52;62.48
77939;BME280;67136;47.546;21.630;2023-06-10T08:34:33;99819.03;;;25.78;61.20
77939;BME280;67136;47.546;21.630;2023-06-10T08:37:36;99810.00;;;25.56;61.96
77939;BME280;67136;47.546;21.630;2023-06-10T08:40:39;99807.78;;;25.53;61.90
77939;BME280;67136;47.546;21.630;2023-06-10T08:43:46;99808.97;;;25.97;60.33
77939;BME280;67136;47.546;21.630;2023-06-10T08:46:51;99810.69;;;27.04;55.79
77939;BME280;67136;47.546;21.630;2023-06-10T08:49:54;99810.53;;;27.27;56.02
77939;BME280;67136;47.546;21.630;2023-06-10T08:53:00;99801.91;;;26.91;56.80
77939;BME280;67136;47.546;21.630;2023-06-10T08:56:05;99796.94;;;28.15;53.27
77939;BME280;67136;47.546;21.630;2023-06-10T08:59:09;99797.06;;;30.13;46.88
77939;BME280;67136;47.546;21.630;2023-06-10T09:02:14;99794.13;;;31.70;44.11
77939;BME280;67136;47.546;21.630;2023-06-10T09:05:23;99800.94;;;32.65;40.55
77939;BME280;67136;47.546;21.630;2023-06-10T09:08:30;99799.91;;;31.28;42.17
77939;BME280;67136;47.546;21.630;2023-06-10T09:11:33;99788.78;;;28.53;48.41
77939;BME280;67136;47.546;21.630;2023-06-10T09:14:36;99777.66;;;28.23;49.19
77939;BME280;67136;47.546;21.630;2023-06-10T09:17:39;99783.84;;;28.23;49.83
77939;BME280;67136;47.546;21.630;2023-06-10T09:20:43;99777.53;;;28.92;47.21
77939;BME280;67136;47.546;21.630;2023-06-10T09:23:47;99776.66;;;32.89;39.97
77939;BME280;67136;47.546;21.630;2023-06-10T09:26:50;99772.78;;;34.36;35.08
77939;BME280;67136;47.546;21.630;2023-06-10T09:29:54;99774.34;;;35.52;32.73
77939;BME280;67136;47.546;21.630;2023-06-10T09:33:02;99781.38;;;34.25;35.77
77939;BME280;67136;47.546;21.630;2023-06-10T09:36:05;99769.75;;;33.58;37.36
77939;BME280;67136;47.546;21.630;2023-06-10T09:39:16;99768.94;;;31.80;40.86
77939;BME280;67136;47.546;21.630;2023-06-10T09:42:19;99766.31;;;31.59;39.77
77939;BME280;67136;47.546;21.630;2023-06-10T09:45:23;99756.69;;;30.43;40.51
77939;BME280;67136;47.546;21.630;2023-06-10T09:48:26;99756.09;;;29.49;43.37
77939;BME280;67136;47.546;21.630;2023-06-10T09:51:28;99754.69;;;27.88;46.63
77939;BME280;67136;47.546;21.630;2023-06-10T09:54:31;99747.13;;;27.42;48.33
77939;BME280;67136;47.546;21.630;2023-06-10T09:57:34;99741.41;;;27.01;49.81
77939;BME280;67136;47.546;21.630;2023-06-10T10:00:38;99741.50;;;26.89;50.95
77939;BME280;67136;47.546;21.630;2023-06-10T10:03:51;99739.00;;;28.02;48.30
77939;BME280;67136;47.546;21.630;2023-06-10T10:06:54;99738.69;;;28.25;48.24
77939;BME280;67136;47.546;21.630;2023-06-10T10:09:56;99738.78;;;28.98;46.30
77939;BME280;67136;47.546;21.630;2023-06-10T10:12:59;99736.84;;;28.89;45.57
77939;BME280;67136;47.546;21.630;2023-06-10T10:16:25;99729.25;;;28.49;45.24
77939;BME280;67136;47.546;21.630;2023-06-10T10:19:32;99724.31;;;27.07;47.33
77939;BME280;67136;47.546;21.630;2023-06-10T10:22:40;99729.44;;;27.46;47.40
77939;BME280;67136;47.546;21.630;2023-06-10T10:25:49;99728.94;;;27.49;48.32
77939;BME280;67136;47.546;21.630;2023-06-10T10:29:10;99737.69;;;26.68;51.66
77939;BME280;67136;47.546;21.630;2023-06-10T10:32:14;99725.75;;;26.31;51.66
77939;BME280;67136;47.546;21.630;2023-06-10T10:35:21;99725.81;;;25.92;52.26
77939;BME280;67136;47.546;21.630;2023-06-10T10:38:25;99723.88;;;25.87;51.24
77939;BME280;67136;47.546;21.630;2023-06-10T10:41:31;99725.38;;;25.20;52.37
77939;BME280;67136;47.546;21.630;2023-06-10T10:44:36;99715.03;;;25.47;52.15
77939;BME280;67136;47.546;21.630;2023-06-10T10:47:39;99717.91;;;25.57;52.31
77939;BME280;67136;47.546;21.630;2023-06-10T10:50:56;99714.94;;;25.98;51.99
77939;BME280;67136;47.546;21.630;2023-06-10T10:54:14;99712.25;;;26.26;50.82
77939;BME280;67136;47.546;21.630;2023-06-10T10:57:22;99718.47;;;27.10;48.27
77939;BME280;67136;47.546;21.630;2023-06-10T11:00:33;99715.84;;;26.15;50.71
77939;BME280;67136;47.546;21.630;2023-06-10T11:03:45;99712.66;;;25.62;52.70
77939;BME280;67136;47.546;21.630;2023-06-10T11:06:54;99717.00;;;25.17;52.87
77939;BME280;67136;47.546;21.630;2023-06-10T11:10:03;99700.28;;;24.98;53.82
77939;BME280;67136;47.546;21.630;2023-06-10T11:13:09;99703.53;;;24.89;54.28
77939;BME280;67136;47.546;21.630;2023-06-10T11:16:19;99699.47;;;24.86;54.02
77939;BME280;67136;47.546;21.630;2023-06-10T11:19:37;99699.31;;;25.16;53.79
77939;BME280;67136;47.546;21.630;2023-06-10T11:22:59;99690.25;;;24.94;54.14
77939;BME280;67136;47.546;21.630;2023-06-10T11:26:19;99690.28;;;24.82;54.30
77939;BME280;67136;47.546;21.630;2023-06-10T11:29:23;99693.22;;;24.39;57.38
77939;BME280;67136;47.546;21.630;2023-06-10T11:32:30;99690.00;;;24.37;61.49
77939;BME280;67136;47.546;21.630;2023-06-10T11:35:35;99690.41;;;24.34;61.05
77939;BME280;67136;47.546;21.630;2023-06-10T11:38:38;99682.81;;;24.49;61.68
77939;BME280;67136;47.546;21.630;2023-06-10T11:41:41;99681.87;;;24.55;61.89
77939;BME280;67136;47.546;21.630;2023-06-10T11:44:54;99685.38;;;24.56;62.31
77939;BME280;67136;47.546;21.630;2023-06-10T11:48:00;99678.00;;;26.45;56.89
77939;BME280;67136;47.546;21.630;2023-06-10T11:51:07;99677.53;;;25.35;59.54
77939;BME280;67136;47.546;21.630;2023-06-10T11:54:10;99677.59;;;25.01;61.14
77939;BME280;67136;47.546;21.630;2023-06-10T11:57:13;99676.53;;;24.79;62.30
77939;BME280;67136;47.546;21.630;2023-06-10T12:00:16;99674.78;;;24.61;63.17
77939;BME280;67136;47.546;21.630;2023-06-10T12:03:20;99675.63;;;24.85;62.90
77939;BME280;67136;47.546;21.630;2023-06-10T12:06:25;99673.06;;;24.90;62.06
77939;BME280;67136;47.546;21.630;2023-06-10T12:09:29;99677.50;;;24.84;62.47
77939;BME280;67136;47.546;21.630;2023-06-10T12:12:34;99676.03;;;26.57;57.40
77939;BME280;67136;47.546;21.630;2023-06-10T12:15:39;99669.56;;;27.94;53.18
77939;BME280;67136;47.546;21.630;2023-06-10T12:18:43;99668.97;;;30.61;45.67
77939;BME280;67136;47.546;21.630;2023-06-10T12:21:47;99656.75;;;31.67;43.19
77939;BME280;67136;47.546;21.630;2023-06-10T12:25:08;99653.69;;;33.55;39.30
77939;BME280;67136;47.546;21.630;2023-06-10T12:28:13;99658.69;;;33.85;37.03
77939;BME280;67136;47.546;21.630;2023-06-10T12:31:15;99652.41;;;34.09;36.08
77939;BME280;67136;47.546;21.630;2023-06-10T12:34:18;99649.91;;;35.31;35.12
77939;BME280;67136;47.546;21.630;2023-06-10T12:37:20;99638.28;;;36.23;32.74
77939;BME280;67136;47.546;21.630;2023-06-10T12:43:31;99644.00;;;36.13;33.33
77939;BME280;67136;47.546;21.630;2023-06-10T12:46:37;99640.88;;;36.51;33.07
77939;BME280;67136;47.546;21.630;2023-06-10T12:49:40;99643.41;;;36.25;33.00
77939;BME280;67136;47.546;21.630;2023-06-10T12:52:43;99649.47;;;36.36;32.02
77939;BME280;67136;47.546;21.630;2023-06-10T12:55:46;99643.19;;;35.15;34.08
77939;BME280;67136;47.546;21.630;2023-06-10T12:58:49;99639.69;;;34.55;35.42
77939;BME280;67136;47.546;21.630;2023-06-10T13:01:52;99631.62;;;32.44;38.90
77939;BME280;67136;47.546;21.630;2023-06-10T13:04:55;99628.13;;;32.05;38.74
77939;BME280;67136;47.546;21.630;2023-06-10T13:07:59;99640.06;;;30.86;41.99
77939;BME280;67136;47.546;21.630;2023-06-10T13:11:04;99632.94;;;29.50;45.42
77939;BME280;67136;47.546;21.630;2023-06-10T13:14:06;99634.53;;;28.47;48.11
77939;BME280;67136;47.546;21.630;2023-06-10T13:17:09;99628.78;;;27.54;51.74
77939;BME280;67136;47.546;21.630;2023-06-10T13:20:11;99634.34;;;27.26;51.96
77939;BME280;67136;47.546;21.630;2023-06-10T13:23:14;99634.28;;;26.44;53.08
77939;BME280;67136;47.546;21.630;2023-06-10T13:26:17;99628.34;;;25.81;54.48
77939;BME280;67136;47.546;21.630;2023-06-10T13:29:20;99623.53;;;25.66;55.51
77939;BME280;67136;47.546;21.630;2023-06-10T13:32:23;99622.78;;;25.54;56.31
77939;BME280;67136;47.546;21.630;2023-06-10T13:35:26;99618.66;;;25.24;59.85
77939;BME280;67136;47.546;21.630;2023-06-10T13:38:29;99629.25;;;25.19;58.83
77939;BME280;67136;47.546;21.630;2023-06-10T13:41:31;99614.84;;;25.20;58.47
77939;BME280;67136;47.546;21.630;2023-06-10T13:44:34;99613.03;;;24.97;59.38
77939;BME280;67136;47.546;21.630;2023-06-10T13:47:38;99609.19;;;25.05;58.94
77939;BME280;67136;47.546;21.630;2023-06-10T13:50:41;99614.53;;;25.05;59.20
77939;BME280;67136;47.546;21.630;2023-06-10T13:53:47;99605.34;;;25.01;59.32
77939;BME280;67136;47.546;21.630;2023-06-10T13:56:50;99596.37;;;24.95;59.86
77939;BME280;67136;47.546;21.630;2023-06-10T13:59:53;99597.59;;;24.88;59.71
77939;BME280;67136;47.546;21.630;2023-06-10T14:02:55;99597.91;;;25.03;59.44
77939;BME280;67136;47.546;21.630;2023-06-10T14:05:59;99601.97;;;24.94;60.26
77939;BME280;67136;47.546;21.630;2023-06-10T14:09:01;99601.28;;;24.98;60.76
77939;BME280;67136;47.546;21.630;2023-06-10T14:12:05;99592.34;;;24.93;61.06
77939;BME280;67136;47.546;21.630;2023-06-10T14:15:07;99591.06;;;24.84;61.60
77939;BME280;67136;47.546;21.630;2023-06-10T14:18:13;99592.81;;;24.90;61.65
77939;BME280;67136;47.546;21.630;2023-06-10T14:21:16;99596.87;;;24.92;61.68
77939;BME280;67136;47.546;21.630;2023-06-10T14:24:19;99603.50;;;25.01;61.83
77939;BME280;67136;47.546;21.630;2023-06-10T14:27:21;99605.56;;;25.11;61.82
77939;BME280;67136;47.546;21.630;2023-06-10T14:30:24;99609.75;;;25.07;62.36
77939;BME280;67136;47.546;21.630;2023-06-10T14:33:27;99605.44;;;25.06;62.73
77939;BME280;67136;47.546;21.630;2023-06-10T14:36:29;99604.91;;;24.81;64.89
77939;BME280;67136;47.546;21.630;2023-06-10T14:39:33;99609.19;;;24.82;64.50
77939;BME280;67136;47.546;21.630;2023-06-10T14:42:36;99603.50;;;24.78;65.42
77939;BME280;67136;47.546;21.630;2023-06-10T14:45:40;99607.47;;;24.76;65.05
77939;BME280;67136;47.546;21.630;2023-06-10T14:48:43;99609.69;;;24.79;65.33
77939;BME280;67136;47.546;21.630;2023-06-10T14:51:45;99613.75;;;24.81;65.62
77939;BME280;67136;47.546;21.630;2023-06-10T14:54:48;99613.19;;;24.79;65.58
77939;BME280;67136;47.546;21.630;2023-06-10T14:57:51;99609.09;;;24.77;65.75
77939;BME280;67136;47.546;21.630;2023-06-10T15:00:54;99606.09;;;24.85;65.12
77939;BME280;67136;47.546;21.630;2023-06-10T15:03:56;99607.47;;;24.76;65.30
77939;BME280;67136;47.546;21.630;2023-06-10T15:06:59;99622.69;;;24.64;65.77
77939;BME280;67136;47.546;21.630;2023-06-10T15:10:02;99608.66;;;24.80;65.16
77939;BME280;67136;47.546;21.630;2023-06-10T15:13:06;99595.25;;;24.91;64.83
77939;BME280;67136;47.546;21.630;2023-06-10T15:16:09;99583.16;;;24.77;65.09
77939;BME280;67136;47.546;21.630;2023-06-10T15:19:12;99578.84;;;24.88;64.51
77939;BME280;67136;47.546;21.630;2023-06-10T15:22:17;99569.84;;;25.05;63.99
77939;BME280;67136;47.546;21.630;2023-06-10T15:25:20;99567.31;;;24.99;64.22
77939;BME280;67136;47.546;21.630;2023-06-10T15:28:32;99581.09;;;25.19;63.11
77939;BME280;67136;47.546;21.630;2023-06-10T15:31:35;99590.75;;;25.20;62.48
77939;BME280;67136;47.546;21.630;2023-06-10T15:34:38;99597.00;;;25.25;62.23
77939;BME280;67136;47.546;21.630;2023-06-10T15:37:41;99589.97;;;25.08;61.99
77939;BME280;67136;47.546;21.630;2023-06-10T15:40:43;99592.41;;;25.09;61.25
77939;BME280;67136;47.546;21.630;2023-06-10T15:43:47;99604.91;;;24.58;62.44
77939;BME280;67136;47.546;21.630;2023-06-10T15:46:49;99591.19;;;24.42;62.77
77939;BME280;67136;47.546;21.630;2023-06-10T15:49:52;99613.03;;;24.16;60.83
77939;BME280;67136;47.546;21.630;2023-06-10T15:52:56;99610.69;;;23.67;61.16
77939;BME280;67136;47.546;21.630;2023-06-10T15:55:59;99626.59;;;23.44;61.80
77939;BME280;67136;47.546;21.630;2023-06-10T15:59:02;99636.22;;;23.09;62.51
77939;BME280;67136;47.546;21.630;2023-06-10T16:02:05;99637.66;;;23.11;62.12
77939;BME280;67136;47.546;21.630;2023-06-10T16:05:08;99626.63;;;23.08;62.21
77939;BME280;67136;47.546;21.630;2023-06-10T16:08:12;99621.06;;;22.91;62.63